createdAt,value
2019-05-03T00:05:26.854Z,3.80
2019-05-03T00:07:58.563Z,4.60
2019-05-03T00:10:29.136Z,4.15
2019-05-03T00:12:59.334Z,3.90
2019-05-03T00:15:34.066Z,3.85
2019-05-03T00:18:05.722Z,3.62
2019-05-03T00:20:36.240Z,4.10
2019-05-03T00:23:06.365Z,3.67
2019-05-03T00:25:36.532Z,3.62
2019-05-03T00:28:08.689Z,4.40
2019-05-03T00:30:39.403Z,4.40
2019-05-03T00:33:11.670Z,4.30
2019-05-03T00:35:44.183Z,4.75
2019-05-03T00:38:15.717Z,5.00
2019-05-03T00:40:46.222Z,5.35
2019-05-03T00:43:16.456Z,5.50
2019-05-03T00:45:46.497Z,5.95
2019-05-03T00:51:09.029Z,7.60
2019-05-03T00:53:48.839Z,8.05
2019-05-03T00:56:18.960Z,8.45
2019-05-03T00:58:53.281Z,9.30
2019-05-03T01:01:29.030Z,9.98
2019-05-03T01:04:02.611Z,10.08
2019-05-03T01:06:34.218Z,9.28
2019-05-03T01:09:08.277Z,9.43
2019-05-03T01:11:41.813Z,9.73
2019-05-03T01:14:14.668Z,10.20
2019-05-03T01:17:11.620Z,10.03
2019-05-03T01:19:46.144Z,10.03
2019-05-03T01:22:22.628Z,10.90
2019-05-03T01:24:53.463Z,10.70
2019-05-03T01:27:24.022Z,11.10
2019-05-03T01:29:54.088Z,11.05
2019-05-03T01:32:24.294Z,11.50
2019-05-03T01:34:54.307Z,11.70
2019-05-03T01:37:25.993Z,11.70
2019-05-03T01:39:57.749Z,11.08
2019-05-03T01:42:27.889Z,11.15
2019-05-03T01:44:58.061Z,10.90
2019-05-03T01:47:32.715Z,10.78
2019-05-03T01:50:04.494Z,10.85
2019-05-03T01:52:36.265Z,11.25
2019-05-03T01:55:06.942Z,10.88
2019-05-03T01:57:38.130Z,12.00
2019-05-03T02:00:13.091Z,11.55
2019-05-03T02:02:44.863Z,12.90
2019-05-03T02:05:33.474Z,11.48
2019-05-03T02:08:03.753Z,11.78
2019-05-03T02:10:53.046Z,11.15
2019-05-03T02:13:23.176Z,11.57
2019-05-03T02:15:53.436Z,10.72
2019-05-03T02:18:23.642Z,11.43
2019-05-03T02:20:53.914Z,10.50
2019-05-03T02:23:23.914Z,11.15
2019-05-03T02:25:58.410Z,11.55
2019-05-03T02:28:26.024Z,11.43
2019-05-03T02:30:56.172Z,11.08
2019-05-03T02:33:26.424Z,12.30
2019-05-03T02:36:03.624Z,12.58
2019-05-03T02:38:33.778Z,11.73
2019-05-03T02:41:05.655Z,12.73
2019-05-03T02:43:40.215Z,11.95
2019-05-03T02:46:20.784Z,12.80
2019-05-03T02:48:52.709Z,12.75
2019-05-03T02:53:57.694Z,12.47
2019-05-03T02:56:27.857Z,12.75
2019-05-03T02:58:58.422Z,12.73
2019-05-03T03:01:29.459Z,12.85
2019-05-03T03:03:59.880Z,12.47
2019-05-03T03:06:31.660Z,12.53
2019-05-03T03:09:05.456Z,12.88
2019-05-03T03:11:38.600Z,13.78
2019-05-03T03:14:11.391Z,13.95
2019-05-03T03:16:45.515Z,12.85
2019-05-03T03:19:16.987Z,13.70
2019-05-03T03:21:50.077Z,13.90
2019-05-03T03:24:22.526Z,12.30
2019-05-03T03:26:56.489Z,12.50
2019-05-03T03:32:09.925Z,13.62
2019-05-03T03:34:54.329Z,13.85
2019-05-03T03:37:15.769Z,13.38
2019-05-03T03:40:06.788Z,13.28
2019-05-03T03:42:39.328Z,13.62
2019-05-03T03:45:09.629Z,14.83
2019-05-03T03:47:39.927Z,13.35
2019-05-03T03:50:10.534Z,12.58
2019-05-03T03:52:44.690Z,12.75
2019-05-03T03:55:15.903Z,11.85
2019-05-03T03:57:46.966Z,12.80
2019-05-03T04:00:18.627Z,12.85
2019-05-03T04:02:50.501Z,12.95
2019-05-03T04:05:20.635Z,12.50
2019-05-03T04:07:51.281Z,14.05
2019-05-03T04:10:21.417Z,12.55
2019-05-03T04:12:51.568Z,13.25
2019-05-03T04:15:25.823Z,12.35
2019-05-03T04:17:56.930Z,13.38
2019-05-03T04:20:29.036Z,13.75
2019-05-03T04:23:05.326Z,13.72
2019-05-03T04:25:35.991Z,14.68
2019-05-03T04:28:06.171Z,13.28
2019-05-03T04:30:36.679Z,13.75
2019-05-03T04:33:08.933Z,14.25
2019-05-03T04:35:39.069Z,14.47
2019-05-03T04:38:09.396Z,14.80
2019-05-03T04:40:41.535Z,14.93
2019-05-03T04:43:16.278Z,14.10
2019-05-03T04:45:47.546Z,12.88
2019-05-03T04:48:17.738Z,13.80
2019-05-03T04:50:48.372Z,14.23
2019-05-03T04:53:18.502Z,13.25
2019-05-03T04:55:48.666Z,13.25
2019-05-03T04:58:18.873Z,14.07
2019-05-03T05:00:50.561Z,14.30
2019-05-03T05:03:20.860Z,15.80
2019-05-03T05:05:50.973Z,15.60
2019-05-03T05:08:25.305Z,14.55
2019-05-03T05:10:57.231Z,16.57
2019-05-03T05:13:28.185Z,16.87
2019-05-03T05:15:58.431Z,15.93
2019-05-03T05:18:36.432Z,15.85
2019-05-03T05:21:11.087Z,15.03
2019-05-03T05:23:44.379Z,16.45
2019-05-03T05:26:16.187Z,15.25
2019-05-03T05:28:50.948Z,15.60
2019-05-03T05:31:21.171Z,15.58
2019-05-03T05:33:54.519Z,16.07
2019-05-03T05:36:25.133Z,15.65
2019-05-03T05:38:58.192Z,15.85
2019-05-03T05:41:28.393Z,15.85
2019-05-03T05:43:58.644Z,15.65
2019-05-03T05:46:31.961Z,16.12
2019-05-03T05:49:04.330Z,15.00
2019-05-03T05:51:35.312Z,15.77
2019-05-03T05:54:06.136Z,15.75
2019-05-03T05:56:44.438Z,14.23
2019-05-03T05:59:15.857Z,14.23
2019-05-03T06:01:47.793Z,14.63
2019-05-03T06:04:18.019Z,15.72
2019-05-03T06:07:05.187Z,15.65
2019-05-03T06:09:39.906Z,16.27
2019-05-03T06:12:17.450Z,16.00
2019-05-03T06:14:55.278Z,15.50
2019-05-03T06:17:39.094Z,17.32
2019-05-03T06:20:20.292Z,16.50
2019-05-03T06:22:52.006Z,16.75
2019-05-03T06:25:26.524Z,16.32
2019-05-03T06:30:35.596Z,16.27
2019-05-03T06:33:05.955Z,15.53
2019-05-03T06:35:36.072Z,16.42
2019-05-03T06:38:07.728Z,17.00
2019-05-03T06:40:37.769Z,16.67
2019-05-03T06:43:09.798Z,15.30
2019-05-03T06:46:00.815Z,15.68
2019-05-03T06:48:35.226Z,16.45
2019-05-03T06:51:10.476Z,15.90
2019-05-03T06:53:37.366Z,16.55
2019-05-03T06:56:08.747Z,15.90
2019-05-03T06:58:42.061Z,16.50
2019-05-03T07:01:22.806Z,15.35
2019-05-03T07:03:57.517Z,16.23
2019-05-03T07:06:45.879Z,16.48
2019-05-03T07:09:29.458Z,16.15
2019-05-03T07:12:04.369Z,16.32
2019-05-03T07:14:35.311Z,15.83
2019-05-03T07:17:08.451Z,15.98
2019-05-03T07:19:38.524Z,15.10
2019-05-03T07:22:08.678Z,15.38
2019-05-03T07:24:40.938Z,15.70
2019-05-03T07:27:11.314Z,14.28
2019-05-03T07:29:41.545Z,14.93
2019-05-03T07:32:11.810Z,15.83
2019-05-03T07:34:41.885Z,14.13
2019-05-03T07:37:14.560Z,14.40
2019-05-03T07:39:47.630Z,14.00
2019-05-03T07:42:19.758Z,13.95
2019-05-03T07:44:49.957Z,13.40
2019-05-03T07:47:20.314Z,13.65
2019-05-03T07:49:50.536Z,13.75
2019-05-03T07:52:20.635Z,13.40
2019-05-03T07:54:52.385Z,13.88
2019-05-03T08:00:25.906Z,14.05
2019-05-03T08:02:57.041Z,14.43
2019-05-03T08:05:27.196Z,12.47
2019-05-03T08:07:57.421Z,12.78
2019-05-03T08:10:28.638Z,12.55
2019-05-03T08:12:58.769Z,11.88
2019-05-03T08:15:28.997Z,12.10
2019-05-03T08:18:00.647Z,13.03
2019-05-03T08:20:32.070Z,12.88
2019-05-03T08:23:02.325Z,12.05
2019-05-03T08:25:32.443Z,11.97
2019-05-03T08:28:14.765Z,10.88
2019-05-03T08:31:02.198Z,9.80
2019-05-03T08:33:44.836Z,10.48
2019-05-03T08:36:15.613Z,11.15
2019-05-03T08:38:46.074Z,10.70
2019-05-03T08:41:20.869Z,11.35
2019-05-03T08:43:51.128Z,10.88
2019-05-03T08:46:21.398Z,11.63
2019-05-03T08:48:51.530Z,11.57
2019-05-03T08:51:21.774Z,10.63
2019-05-03T08:53:51.851Z,9.45
2019-05-03T08:56:22.022Z,10.43
2019-05-03T08:58:52.163Z,9.50
2019-05-03T09:01:22.301Z,10.50
2019-05-03T09:03:52.453Z,11.53
2019-05-03T09:06:24.676Z,10.00
2019-05-03T09:08:57.235Z,9.90
2019-05-03T09:11:33.928Z,8.90
2019-05-03T09:14:04.609Z,9.25
2019-05-03T09:16:35.546Z,9.63
2019-05-03T09:19:05.945Z,8.78
2019-05-03T09:21:36.098Z,9.68
2019-05-03T09:24:08.131Z,9.68
2019-05-03T09:26:38.245Z,10.18
2019-05-03T09:29:08.592Z,11.35
2019-05-03T09:31:38.994Z,10.40
2019-05-03T09:34:09.347Z,11.85
2019-05-03T09:36:39.461Z,12.55
2019-05-03T09:39:09.999Z,12.90
2019-05-03T09:41:40.205Z,12.50
2019-05-03T09:44:11.334Z,12.65
2019-05-03T09:46:44.915Z,13.32
2019-05-03T09:49:16.567Z,13.45
2019-05-03T09:51:47.987Z,12.95
2019-05-03T09:54:21.795Z,12.53
2019-05-03T09:56:59.073Z,11.75
2019-05-03T09:59:30.412Z,12.90
2019-05-03T10:02:01.929Z,11.73
2019-05-03T10:04:32.152Z,10.95
2019-05-03T10:07:04.550Z,11.63
2019-05-03T10:09:35.354Z,10.72
2019-05-03T10:12:07.498Z,9.43
2019-05-03T10:14:40.646Z,8.78
2019-05-03T10:17:25.173Z,9.03
2019-05-03T10:19:55.666Z,9.40
2019-05-03T10:22:28.157Z,9.28
2019-05-03T10:24:58.452Z,8.50
2019-05-03T10:27:30.413Z,8.53
2019-05-03T10:30:12.154Z,8.85
2019-05-03T10:32:42.116Z,7.15
2019-05-03T10:35:15.123Z,7.33
2019-05-03T10:37:45.666Z,6.70
2019-05-03T10:40:19.268Z,7.20
2019-05-03T10:42:52.808Z,6.58
2019-05-03T10:45:35.543Z,5.97
2019-05-03T10:48:06.011Z,5.95
2019-05-03T10:50:36.113Z,6.90
2019-05-03T10:53:08.031Z,7.37
2019-05-03T10:55:38.204Z,7.95
2019-05-03T10:58:12.582Z,9.85
2019-05-03T11:00:52.327Z,9.05
2019-05-03T11:03:17.785Z,8.43
2019-05-03T11:05:47.970Z,9.13
2019-05-03T11:08:18.343Z,7.47
2019-05-03T11:10:48.510Z,5.87
2019-05-03T11:13:18.779Z,7.50
2019-05-03T11:15:48.907Z,4.87
2019-05-03T11:18:19.229Z,4.25
2019-05-03T11:20:49.566Z,2.33
2019-05-03T11:23:20.154Z,3.30
2019-05-03T11:25:50.651Z,2.50
2019-05-03T11:28:22.414Z,1.72
2019-05-03T11:30:57.769Z,1.12
2019-05-03T11:33:26.477Z,1.30
2019-05-03T11:36:14.936Z,1.40
2019-05-03T11:38:45.995Z,1.35
2019-05-03T11:41:29.197Z,2.20
2019-05-03T11:43:48.946Z,2.42
2019-05-03T11:46:19.569Z,2.27
2019-05-03T11:48:50.163Z,2.35
2019-05-03T11:51:20.430Z,2.20
2019-05-03T11:53:54.634Z,2.30
2019-05-03T11:56:25.361Z,2.55
2019-05-03T11:58:57.163Z,2.00
2019-05-03T12:01:29.112Z,2.25
2019-05-03T12:03:59.202Z,1.60
2019-05-03T12:06:29.345Z,1.95
2019-05-03T12:08:59.543Z,1.55
2019-05-03T12:11:31.281Z,0.93
2019-05-03T12:14:12.182Z,1.90
2019-05-03T12:19:21.338Z,1.70
2019-05-03T12:21:49.253Z,1.72
2019-05-03T12:24:20.400Z,1.60
2019-05-03T12:26:51.046Z,1.30
2019-05-03T12:29:21.850Z,1.67
2019-05-03T12:31:52.077Z,0.70
2019-05-03T12:34:25.589Z,0.80
2019-05-03T12:36:57.569Z,0.80
2019-05-03T12:39:30.621Z,1.25
2019-05-03T12:41:59.841Z,1.50
2019-05-03T12:44:30.057Z,1.37
2019-05-03T12:47:02.483Z,1.10
2019-05-03T12:49:36.460Z,1.30
2019-05-03T12:52:10.474Z,1.32
2019-05-03T12:57:12.932Z,1.07
2019-05-03T12:59:46.101Z,0.90
2019-05-03T13:02:24.841Z,1.17
2019-05-03T13:04:55.435Z,1.00
2019-05-03T13:07:27.259Z,1.20
2019-05-03T13:09:57.458Z,1.30
2019-05-03T13:12:30.486Z,1.40
2019-05-03T13:15:00.676Z,0.93
2019-05-03T13:17:36.909Z,1.15
2019-05-03T13:20:16.502Z,1.20
2019-05-03T13:22:46.709Z,1.02
2019-05-03T13:25:18.710Z,1.40
2019-05-03T13:27:49.120Z,1.20
2019-05-03T13:30:19.383Z,1.27
2019-05-03T13:32:49.523Z,1.12
2019-05-03T13:35:21.246Z,1.20
2019-05-03T13:37:55.519Z,1.20
2019-05-03T13:40:26.797Z,1.07
2019-05-03T13:43:03.295Z,1.20
2019-05-03T13:45:35.563Z,1.20
2019-05-03T13:48:06.036Z,1.10
2019-05-03T13:50:37.325Z,1.15
2019-05-03T13:53:07.656Z,1.20
2019-05-03T13:55:37.990Z,1.12
2019-05-03T13:58:08.307Z,1.20
2019-05-03T14:00:40.181Z,1.20
2019-05-03T14:03:10.529Z,1.02
2019-05-03T14:05:40.871Z,2.17
2019-05-03T14:08:11.242Z,3.83
2019-05-03T14:10:42.203Z,4.30
2019-05-03T14:13:12.568Z,4.45
2019-05-03T14:15:42.849Z,3.80
2019-05-03T14:18:17.404Z,3.90
2019-05-03T14:21:05.327Z,3.72
2019-05-03T14:23:53.534Z,3.58
2019-05-03T14:26:24.559Z,3.52
2019-05-03T14:28:57.029Z,3.95
2019-05-03T14:31:29.458Z,3.40
2019-05-03T14:33:59.759Z,3.30
2019-05-03T14:36:30.083Z,3.33
2019-05-03T14:39:00.433Z,3.05
2019-05-03T14:41:31.501Z,2.60
2019-05-03T14:44:01.853Z,2.55
2019-05-03T14:46:33.302Z,2.52
2019-05-03T14:49:05.492Z,2.00
2019-05-03T14:51:36.153Z,1.77
2019-05-03T14:54:07.220Z,1.57
2019-05-03T14:56:39.499Z,1.85
2019-05-03T14:59:28.472Z,2.20
2019-05-03T15:02:16.613Z,2.10
2019-05-03T15:04:46.917Z,2.17
2019-05-03T15:07:17.269Z,2.00
2019-05-03T15:09:47.613Z,1.60
2019-05-03T15:12:19.230Z,1.80
2019-05-03T15:14:50.501Z,2.10
2019-05-03T15:17:20.764Z,1.92
2019-05-03T15:19:51.075Z,2.22
2019-05-03T15:22:21.512Z,1.87
2019-05-03T15:24:51.839Z,1.77
2019-05-03T15:27:22.177Z,1.77
2019-05-03T15:29:52.498Z,2.08
2019-05-03T15:32:24.527Z,2.35
2019-05-03T15:34:55.425Z,2.25
2019-05-03T15:37:26.021Z,2.35
2019-05-03T15:39:56.271Z,2.47
2019-05-03T15:42:28.148Z,2.30
2019-05-03T15:45:05.077Z,2.42
2019-05-03T15:47:36.381Z,2.00
2019-05-03T15:50:07.532Z,2.45
2019-05-03T15:52:37.762Z,2.90
2019-05-03T15:55:08.476Z,2.67
2019-05-03T15:57:38.715Z,2.33
2019-05-03T16:00:10.828Z,2.77
2019-05-03T16:02:42.035Z,2.52
2019-05-03T16:05:12.362Z,2.62
2019-05-03T16:07:44.494Z,2.12
2019-05-03T16:10:15.379Z,3.02
2019-05-03T16:12:47.840Z,1.95
2019-05-03T16:15:18.194Z,2.00
2019-05-03T16:17:48.541Z,2.00
2019-05-03T16:20:18.970Z,2.40
2019-05-03T16:22:49.305Z,2.27
2019-05-03T16:25:19.751Z,2.22
2019-05-03T16:27:55.327Z,3.10
2019-05-03T16:30:31.183Z,2.70
2019-05-03T16:33:01.545Z,2.90
2019-05-03T16:35:32.577Z,2.37
2019-05-03T16:38:06.160Z,2.90
2019-05-03T16:40:36.679Z,3.45
2019-05-03T16:43:07.357Z,3.08
2019-05-03T16:45:38.717Z,2.80
2019-05-03T16:48:10.520Z,3.47
2019-05-03T16:50:42.419Z,3.60
2019-05-03T16:53:14.714Z,4.22
2019-05-03T16:56:03.492Z,3.83
2019-05-03T16:58:35.406Z,3.80
2019-05-03T17:01:05.829Z,2.90
2019-05-03T17:03:41.409Z,3.33
2019-05-03T17:06:20.287Z,3.90
2019-05-03T17:08:56.801Z,5.15
2019-05-03T17:11:28.157Z,5.40
2019-05-03T17:13:58.495Z,6.45
2019-05-03T17:16:29.631Z,6.83
2019-05-03T17:22:08.363Z,5.90
2019-05-03T17:24:40.104Z,5.47
2019-05-03T17:27:10.248Z,6.42
2019-05-03T17:29:40.354Z,6.65
2019-05-03T17:32:11.097Z,7.78
2019-05-03T17:34:45.207Z,6.67
2019-05-03T17:37:16.032Z,7.90
2019-05-03T17:40:05.972Z,8.53
2019-05-03T17:42:55.124Z,8.38
2019-05-03T17:45:27.224Z,9.15
2019-05-03T17:47:57.281Z,8.80
2019-05-03T17:50:27.530Z,9.53
2019-05-03T17:52:59.261Z,9.95
2019-05-03T17:55:40.142Z,10.08
2019-05-03T17:58:27.150Z,11.10
2019-05-03T18:00:59.019Z,8.50
2019-05-03T18:03:31.216Z,8.13
2019-05-03T18:06:05.709Z,7.53
2019-05-03T18:08:37.400Z,7.67
2019-05-03T18:11:12.194Z,7.12
2019-05-03T18:13:44.502Z,6.97
2019-05-03T18:16:14.221Z,7.65
2019-05-03T18:18:45.422Z,6.80
2019-05-03T18:21:15.689Z,7.15
2019-05-03T18:23:45.830Z,7.03
2019-05-03T18:26:16.566Z,8.25
2019-05-03T18:28:48.219Z,7.28
2019-05-03T18:31:18.578Z,7.28
2019-05-03T18:33:51.918Z,28.25
2019-05-03T18:36:22.123Z,12.73
2019-05-03T18:38:55.246Z,6.05
2019-05-03T18:41:28.429Z,5.55
2019-05-03T18:44:05.583Z,5.53
2019-05-03T18:46:37.463Z,5.62
2019-05-03T18:49:07.593Z,6.03
2019-05-03T18:51:37.809Z,6.12
2019-05-03T18:54:08.028Z,5.75
2019-05-03T18:56:40.024Z,5.17
2019-05-03T18:59:10.115Z,5.20
2019-05-03T19:01:40.355Z,4.72
2019-05-03T19:04:12.233Z,4.80
2019-05-03T19:06:44.809Z,4.12
2019-05-03T19:09:24.903Z,4.45
2019-05-03T19:11:59.016Z,4.28
2019-05-03T19:14:29.316Z,4.20
2019-05-03T19:17:07.150Z,4.00
2019-05-03T19:19:39.062Z,4.25
2019-05-03T19:22:09.356Z,3.65
2019-05-03T19:24:39.576Z,3.33
2019-05-03T19:27:09.705Z,3.77
2019-05-03T19:29:40.617Z,4.00
2019-05-03T19:32:10.822Z,4.10
2019-05-03T19:34:50.179Z,4.40
2019-05-03T19:37:14.478Z,52.78
2019-05-03T19:39:46.809Z,102.50
2019-05-03T19:42:17.004Z,9.45
2019-05-03T19:44:47.210Z,5.28
2019-05-03T19:47:19.317Z,4.75
2019-05-03T19:49:49.303Z,4.85
2019-05-03T19:52:21.078Z,5.37
2019-05-03T19:54:51.210Z,6.30
2019-05-03T19:57:24.384Z,6.65
2019-05-03T19:59:56.929Z,8.65
2019-05-03T20:02:28.798Z,8.07
2019-05-03T20:05:17.010Z,9.45
2019-05-03T20:08:00.825Z,9.15
2019-05-03T20:10:35.177Z,9.83
2019-05-03T20:13:06.292Z,10.00
2019-05-03T20:15:36.507Z,10.32
2019-05-03T20:18:06.730Z,10.95
2019-05-03T20:20:36.806Z,12.03
2019-05-03T20:23:06.876Z,11.97
2019-05-03T20:25:38.553Z,12.80
2019-05-03T20:28:08.838Z,12.85
2019-05-03T20:30:41.965Z,13.58
2019-05-03T20:33:12.162Z,13.28
2019-05-03T20:35:42.383Z,14.30
2019-05-03T20:38:12.873Z,15.08
2019-05-03T20:40:44.975Z,14.95
2019-05-03T20:43:19.533Z,12.90
2019-05-03T20:46:00.710Z,12.58
2019-05-03T20:48:31.005Z,12.93
2019-05-03T20:51:01.138Z,14.93
2019-05-03T20:53:34.406Z,14.03
2019-05-03T20:59:08.270Z,16.05
2019-05-03T21:01:38.394Z,13.55
2019-05-03T21:04:08.487Z,12.45
2019-05-03T21:06:38.816Z,11.65
2019-05-03T21:09:09.195Z,12.15
2019-05-03T21:11:40.934Z,12.78
2019-05-03T21:14:12.770Z,14.05
2019-05-03T21:17:00.788Z,13.98
2019-05-03T21:19:32.890Z,14.43
2019-05-03T21:22:07.221Z,16.25
2019-05-03T21:24:39.148Z,15.68
2019-05-03T21:27:09.472Z,15.43
2019-05-03T21:29:54.841Z,16.80
2019-05-03T21:32:25.086Z,16.87
2019-05-03T21:34:55.910Z,16.87
2019-05-03T21:37:26.037Z,17.50
2019-05-03T21:39:56.495Z,17.95
2019-05-03T21:42:26.589Z,17.87
2019-05-03T21:44:56.784Z,18.10
2019-05-03T21:47:28.657Z,16.55
2019-05-03T21:50:08.557Z,16.80
2019-05-03T21:52:38.706Z,16.82
2019-05-03T21:55:08.915Z,17.05
2019-05-03T21:57:39.065Z,19.12
2019-05-03T22:00:10.584Z,17.90
2019-05-03T22:02:42.558Z,18.48
2019-05-03T22:05:14.284Z,17.82
2019-05-03T22:07:46.827Z,17.27
2019-05-03T22:10:17.010Z,17.52
2019-05-03T22:12:47.159Z,17.25
2019-05-03T22:15:21.577Z,19.30
2019-05-03T22:18:04.442Z,19.05
2019-05-03T22:20:39.006Z,19.35
2019-05-03T22:23:15.039Z,19.00
2019-05-03T22:25:45.305Z,19.95
2019-05-03T22:28:15.634Z,20.65
2019-05-03T22:30:45.998Z,22.48
2019-05-03T22:33:16.063Z,23.42
2019-05-03T22:35:46.162Z,23.67
2019-05-03T22:38:16.229Z,23.70
2019-05-03T22:40:47.875Z,24.85
2019-05-03T22:43:18.016Z,25.23
2019-05-03T22:45:49.307Z,22.93
2019-05-03T22:48:20.494Z,25.43
2019-05-03T22:50:50.672Z,24.72
2019-05-03T22:53:20.764Z,26.17
2019-05-03T22:55:51.909Z,25.52
2019-05-03T22:58:24.909Z,25.85
2019-05-03T23:00:55.193Z,26.42
2019-05-03T23:03:27.106Z,26.00
2019-05-03T23:05:57.278Z,27.27
2019-05-03T23:08:27.478Z,27.93
2019-05-03T23:10:57.678Z,27.22
2019-05-03T23:13:27.902Z,28.55
2019-05-03T23:15:59.625Z,29.37
2019-05-03T23:18:29.771Z,26.45
2019-05-03T23:21:10.481Z,26.95
2019-05-03T23:23:51.275Z,25.48
2019-05-03T23:26:21.418Z,25.27
2019-05-03T23:28:54.985Z,25.37
2019-05-03T23:31:25.130Z,25.17
2019-05-03T23:33:55.367Z,24.45
2019-05-03T23:36:33.241Z,26.15
2019-05-03T23:38:57.361Z,25.25
2019-05-03T23:41:29.111Z,24.00
2019-05-03T23:43:59.185Z,22.80
2019-05-03T23:46:30.821Z,24.37
2019-05-03T23:49:00.921Z,23.55
2019-05-03T23:51:44.781Z,24.00
2019-05-03T23:56:45.850Z,25.00
2019-05-03T23:59:29.937Z,23.95
